sensor_id;sensor_type;location;lat;lon;timestamp;pressure;altitude;pressure_sealevel;temperature;humidity
72959;BME280;60008;50.826;6.896;2022-09-25T00:01:21;100736.03;;;12.61;100.00
72959;BME280;60008;50.826;6.896;2022-09-25T00:04:05;100740.25;;;12.47;100.00
72959;BME280;60008;50.826;6.896;2022-09-25T00:06:50;100734.53;;;12.58;100.00
72959;BME280;60008;50.826;6.896;2022-09-25T00:09:35;100742.38;;;12.51;100.00
72959;BME280;60008;50.826;6.896;2022-09-25T00:12:20;100730.03;;;12.59;100.00
72959;BME280;60008;50.826;6.896;2022-09-25T00:15:07;100738.69;;;12.61;100.00
72959;BME280;60008;50.826;6.896;2022-09-25T00:17:52;100744.53;;;12.48;100.00
72959;BME280;60008;50.826;6.896;2022-09-25T00:20:37;100751.50;;;12.57;100.00
72959;BME280;60008;50.826;6.896;2022-09-25T00:23:22;100750.53;;;12.50;100.00
72959;BME280;60008;50.826;6.896;2022-09-25T00:26:07;100744.53;;;12.48;100.00
72959;BME280;60008;50.826;6.896;2022-09-25T00:28:53;100749.16;;;12.54;100.00
72959;BME280;60008;50.826;6.896;2022-09-25T00:31:38;100741.75;;;12.41;100.00
72959;BME280;60008;50.826;6.896;2022-09-25T00:34:23;100738.75;;;12.44;100.00
72959;BME280;60008;50.826;6.896;2022-09-25T00:37:08;100737.53;;;12.55;100.00
72959;BME280;60008;50.826;6.896;2022-09-25T00:39:56;100744.03;;;12.52;100.00
72959;BME280;60008;50.826;6.896;2022-09-25T00:42:41;100736.53;;;12.56;100.00
72959;BME280;60008;50.826;6.896;2022-09-25T00:45:25;100734.69;;;12.57;100.00
72959;BME280;60008;50.826;6.896;2022-09-25T00:48:13;100735.53;;;12.57;100.00
72959;BME280;60008;50.826;6.896;2022-09-25T00:50:59;100741.38;;;12.52;100.00
72959;BME280;60008;50.826;6.896;2022-09-25T00:53:45;100737.44;;;12.40;100.00
72959;BME280;60008;50.826;6.896;2022-09-25T00:56:38;100737.25;;;12.50;100.00
72959;BME280;60008;50.826;6.896;2022-09-25T00:59:28;100734.72;;;12.48;100.00
72959;BME280;60008;50.826;6.896;2022-09-25T01:02:27;100739.91;;;12.50;100.00
72959;BME280;60008;50.826;6.896;2022-09-25T01:05:18;100725.09;;;12.47;100.00
72959;BME280;60008;50.826;6.896;2022-09-25T01:08:07;100737.81;;;12.29;100.00
72959;BME280;60008;50.826;6.896;2022-09-25T01:10:53;100736.13;;;12.36;100.00
72959;BME280;60008;50.826;6.896;2022-09-25T01:13:39;100738.25;;;12.41;100.00
72959;BME280;60008;50.826;6.896;2022-09-25T01:16:37;100739.28;;;12.32;100.00
72959;BME280;60008;50.826;6.896;2022-09-25T01:28:45;100736.63;;;12.32;100.00
72959;BME280;60008;50.826;6.896;2022-09-25T01:34:49;100740.09;;;12.40;100.00
72959;BME280;60008;50.826;6.896;2022-09-25T01:40:52;100739.13;;;12.33;100.00
72959;BME280;60008;50.826;6.896;2022-09-25T01:43:48;100730.69;;;12.22;100.00
72959;BME280;60008;50.826;6.896;2022-09-25T01:46:39;100736.97;;;12.29;100.00
72959;BME280;60008;50.826;6.896;2022-09-25T01:50:06;100735.63;;;12.33;100.00
72959;BME280;60008;50.826;6.896;2022-09-25T01:52:56;100743.94;;;12.30;100.00
72959;BME280;60008;50.826;6.896;2022-09-25T01:55:47;100738.09;;;12.34;100.00
72959;BME280;60008;50.826;6.896;2022-09-25T01:58:40;100741.28;;;12.30;100.00
72959;BME280;60008;50.826;6.896;2022-09-25T02:01:34;100733.13;;;12.31;100.00
72959;BME280;60008;50.826;6.896;2022-09-25T02:04:33;100739.13;;;12.33;100.00
72959;BME280;60008;50.826;6.896;2022-09-25T02:07:27;100730.13;;;12.34;100.00
72959;BME280;60008;50.826;6.896;2022-09-25T02:10:17;100729.78;;;12.37;100.00
72959;BME280;60008;50.826;6.896;2022-09-25T02:13:13;100732.94;;;12.41;100.00
72959;BME280;60008;50.826;6.896;2022-09-25T02:16:04;100732.97;;;12.33;100.00
72959;BME280;60008;50.826;6.896;2022-09-25T02:18:50;100733.47;;;12.36;100.00
72959;BME280;60008;50.826;6.896;2022-09-25T02:22:12;100729.78;;;12.37;100.00
72959;BME280;60008;50.826;6.896;2022-09-25T02:25:07;100728.50;;;12.33;100.00
72959;BME280;60008;50.826;6.896;2022-09-25T02:27:55;100727.66;;;12.33;100.00
72959;BME280;60008;50.826;6.896;2022-09-25T02:30:41;100727.84;;;12.23;100.00
72959;BME280;60008;50.826;6.896;2022-09-25T02:33:28;100740.13;;;12.32;100.00
72959;BME280;60008;50.826;6.896;2022-09-25T02:36:20;100738.97;;;12.27;100.00
72959;BME280;60008;50.826;6.896;2022-09-25T02:39:08;100733.31;;;12.30;100.00
72959;BME280;60008;50.826;6.896;2022-09-25T02:45:11;100738.66;;;12.22;100.00
72959;BME280;60008;50.826;6.896;2022-09-25T02:48:22;100735.63;;;12.33;100.00
72959;BME280;60008;50.826;6.896;2022-09-25T02:51:20;100734.34;;;12.21;100.00
72959;BME280;60008;50.826;6.896;2022-09-25T02:54:35;100732.47;;;12.29;100.00
72959;BME280;60008;50.826;6.896;2022-09-25T03:00:38;100734.34;;;12.21;100.00
72959;BME280;60008;50.826;6.896;2022-09-25T03:03:25;100732.66;;;12.28;100.00
72959;BME280;60008;50.826;6.896;2022-09-25T03:06:11;100734.53;;;12.19;100.00
72959;BME280;60008;50.826;6.896;2022-09-25T03:08:57;100737.31;;;12.26;100.00
72959;BME280;60008;50.826;6.896;2022-09-25T03:11:44;100739.34;;;12.16;100.00
72959;BME280;60008;50.826;6.896;2022-09-25T03:14:30;100738.50;;;12.15;100.00
72959;BME280;60008;50.826;6.896;2022-09-25T03:17:15;100741.31;;;12.22;100.00
72959;BME280;60008;50.826;6.896;2022-09-25T03:20:01;100729.84;;;12.21;100.00
72959;BME280;60008;50.826;6.896;2022-09-25T03:22:46;100741.84;;;12.17;100.00
72959;BME280;60008;50.826;6.896;2022-09-25T03:25:32;100735.03;;;12.23;100.00
72959;BME280;60008;50.826;6.896;2022-09-25T03:28:17;100743.47;;;12.18;100.00
72959;BME280;60008;50.826;6.896;2022-09-25T03:31:04;100741.31;;;12.22;100.00
72959;BME280;60008;50.826;6.896;2022-09-25T03:33:49;100731.91;;;12.11;100.00
72959;BME280;60008;50.826;6.896;2022-09-25T03:36:34;100744.16;;;12.12;100.00
72959;BME280;60008;50.826;6.896;2022-09-25T03:39:20;100750.31;;;12.05;100.00
72959;BME280;60008;50.826;6.896;2022-09-25T03:42:05;100747.34;;;12.00;100.00
72959;BME280;60008;50.826;6.896;2022-09-25T03:44:49;100742.03;;;12.08;100.00
72959;BME280;60008;50.826;6.896;2022-09-25T03:47:34;100735.41;;;12.04;100.00
72959;BME280;60008;50.826;6.896;2022-09-25T03:50:19;100735.41;;;12.04;100.00
72959;BME280;60008;50.826;6.896;2022-09-25T03:53:04;100739.56;;;11.98;100.00
72959;BME280;60008;50.826;6.896;2022-09-25T03:55:49;100742.03;;;12.00;100.00
72959;BME280;60008;50.826;6.896;2022-09-25T03:58:34;100749.84;;;12.01;100.00
72959;BME280;60008;50.826;6.896;2022-09-25T04:01:20;100745.50;;;12.08;100.00
72959;BME280;60008;50.826;6.896;2022-09-25T04:04:05;100743.88;;;11.99;100.00
72959;BME280;60008;50.826;6.896;2022-09-25T04:06:50;100749.03;;;12.01;100.00
72959;BME280;60008;50.826;6.896;2022-09-25T04:09:35;100746.53;;;11.99;100.00
72959;BME280;60008;50.826;6.896;2022-09-25T04:12:19;100740.75;;;11.96;100.00
72959;BME280;60008;50.826;6.896;2022-09-25T04:15:05;100743.72;;;12.01;100.00
72959;BME280;60008;50.826;6.896;2022-09-25T04:17:52;100747.88;;;11.95;100.00
72959;BME280;60008;50.826;6.896;2022-09-25T04:20:37;100748.00;;;12.02;100.00
72959;BME280;60008;50.826;6.896;2022-09-25T04:23:23;100740.88;;;11.94;100.00
72959;BME280;60008;50.826;6.896;2022-09-25T04:26:08;100752.16;;;12.04;100.00
72959;BME280;60008;50.826;6.896;2022-09-25T04:28:53;100740.75;;;11.96;100.00
72959;BME280;60008;50.826;6.896;2022-09-25T04:31:39;100741.88;;;11.93;100.00
72959;BME280;60008;50.826;6.896;2022-09-25T04:34:24;100743.53;;;11.94;100.00
72959;BME280;60008;50.826;6.896;2022-09-25T04:37:09;100748.88;;;11.86;100.00
72959;BME280;60008;50.826;6.896;2022-09-25T04:39:55;100749.19;;;11.91;100.00
72959;BME280;60008;50.826;6.896;2022-09-25T04:42:41;100749.03;;;11.92;100.00
72959;BME280;60008;50.826;6.896;2022-09-25T04:45:28;100752.84;;;11.98;100.00
72959;BME280;60008;50.826;6.896;2022-09-25T04:48:14;100758.19;;;11.90;100.00
72959;BME280;60008;50.826;6.896;2022-09-25T04:50:59;100758.50;;;11.87;100.00
72959;BME280;60008;50.826;6.896;2022-09-25T04:53:45;100764.66;;;11.79;100.00
72959;BME280;60008;50.826;6.896;2022-09-25T04:56:30;100758.31;;;11.88;100.00
72959;BME280;60008;50.826;6.896;2022-09-25T04:59:15;100763.16;;;11.77;100.00
72959;BME280;60008;50.826;6.896;2022-09-25T05:02:00;100760.03;;;11.73;100.00
72959;BME280;60008;50.826;6.896;2022-09-25T05:04:45;100766.63;;;11.85;100.00
72959;BME280;60008;50.826;6.896;2022-09-25T05:07:30;100766.97;;;11.82;100.00
72959;BME280;60008;50.826;6.896;2022-09-25T05:10:15;100762.81;;;11.80;100.00
72959;BME280;60008;50.826;6.896;2022-09-25T05:13:02;100771.28;;;11.75;100.00
72959;BME280;60008;50.826;6.896;2022-09-25T05:15:47;100768.97;;;11.80;100.00
72959;BME280;60008;50.826;6.896;2022-09-25T05:18:32;100764.16;;;11.76;100.00
72959;BME280;60008;50.826;6.896;2022-09-25T05:21:17;100762.66;;;11.81;100.00
72959;BME280;60008;50.826;6.896;2022-09-25T05:24:01;100768.63;;;11.83;100.00
72959;BME280;60008;50.826;6.896;2022-09-25T05:26:47;100767.78;;;11.83;100.00
72959;BME280;60008;50.826;6.896;2022-09-25T05:29:31;100769.16;;;11.79;100.00
72959;BME280;60008;50.826;6.896;2022-09-25T05:32:16;100767.97;;;11.65;100.00
72959;BME280;60008;50.826;6.896;2022-09-25T05:35:02;100774.47;;;11.71;100.00
72959;BME280;60008;50.826;6.896;2022-09-25T05:37:48;100771.09;;;11.85;100.00
72959;BME280;60008;50.826;6.896;2022-09-25T05:40:33;100775.94;;;11.81;100.00
72959;BME280;60008;50.826;6.896;2022-09-25T05:43:18;100777.94;;;11.79;100.00
72959;BME280;60008;50.826;6.896;2022-09-25T05:46:04;100772.63;;;11.79;100.00
72959;BME280;60008;50.826;6.896;2022-09-25T05:48:49;100773.28;;;11.81;100.00
72959;BME280;60008;50.826;6.896;2022-09-25T05:51:35;100781.06;;;11.83;100.00
72959;BME280;60008;50.826;6.896;2022-09-25T05:54:20;100781.91;;;11.75;100.00
72959;BME280;60008;50.826;6.896;2022-09-25T05:57:04;100778.44;;;11.75;100.00
72959;BME280;60008;50.826;6.896;2022-09-25T05:59:50;100782.72;;;11.68;100.00
72959;BME280;60008;50.826;6.896;2022-09-25T06:02:35;100789.03;;;11.75;100.00
72959;BME280;60008;50.826;6.896;2022-09-25T06:05:19;100780.41;;;11.81;100.00
72959;BME280;60008;50.826;6.896;2022-09-25T06:08:04;100782.25;;;11.72;100.00
72959;BME280;60008;50.826;6.896;2022-09-25T06:10:51;100780.94;;;11.76;100.00
72959;BME280;60008;50.826;6.896;2022-09-25T06:13:37;100786.91;;;11.70;100.00
72959;BME280;60008;50.826;6.896;2022-09-25T06:16:22;100791.88;;;11.73;100.00
72959;BME280;60008;50.826;6.896;2022-09-25T06:19:08;100790.06;;;11.82;100.00
72959;BME280;60008;50.826;6.896;2022-09-25T06:21:53;100785.22;;;11.77;100.00
72959;BME280;60008;50.826;6.896;2022-09-25T06:24:38;100786.72;;;11.80;100.00
72959;BME280;60008;50.826;6.896;2022-09-25T06:27:23;100787.41;;;11.82;100.00
72959;BME280;60008;50.826;6.896;2022-09-25T06:30:09;100787.72;;;11.79;100.00
72959;BME280;60008;50.826;6.896;2022-09-25T06:32:57;100799.00;;;11.73;100.00
72959;BME280;60008;50.826;6.896;2022-09-25T06:35:46;100795.00;;;11.77;100.00
72959;BME280;60008;50.826;6.896;2022-09-25T06:38:31;100796.69;;;11.78;100.00
72959;BME280;60008;50.826;6.896;2022-09-25T06:41:18;100802.31;;;11.75;100.00
72959;BME280;60008;50.826;6.896;2022-09-25T06:44:03;100803.66;;;11.71;100.00
72959;BME280;60008;50.826;6.896;2022-09-25T06:46:49;100799.34;;;11.70;100.00
72959;BME280;60008;50.826;6.896;2022-09-25T06:49:34;100806.78;;;11.82;100.00
72959;BME280;60008;50.826;6.896;2022-09-25T06:52:19;100806.78;;;11.82;100.00
72959;BME280;60008;50.826;6.896;2022-09-25T06:55:04;100811.13;;;11.75;100.00
72959;BME280;60008;50.826;6.896;2022-09-25T06:57:49;100812.09;;;11.82;100.00
72959;BME280;60008;50.826;6.896;2022-09-25T07:00:34;100820.91;;;11.75;100.00
72959;BME280;60008;50.826;6.896;2022-09-25T07:03:20;100821.94;;;11.74;100.00
72959;BME280;60008;50.826;6.896;2022-09-25T07:06:24;100830.53;;;11.92;100.00
72959;BME280;60008;50.826;6.896;2022-09-25T07:09:15;100834.03;;;12.01;100.00
72959;BME280;60008;50.826;6.896;2022-09-25T07:12:00;100834.19;;;11.91;100.00
72959;BME280;60008;50.826;6.896;2022-09-25T07:14:45;100837.66;;;12.00;100.00
72959;BME280;60008;50.826;6.896;2022-09-25T07:17:30;100827.69;;;11.93;100.00
72959;BME280;60008;50.826;6.896;2022-09-25T07:20:15;100824.72;;;11.88;100.00
72959;BME280;60008;50.826;6.896;2022-09-25T07:23:00;100830.22;;;11.95;100.00
72959;BME280;60008;50.826;6.896;2022-09-25T07:25:48;100826.72;;;11.86;100.00
72959;BME280;60008;50.826;6.896;2022-09-25T07:28:35;100836.34;;;11.96;100.00
72959;BME280;60008;50.826;6.896;2022-09-25T07:31:23;100837.84;;;11.90;100.00
72959;BME280;60008;50.826;6.896;2022-09-25T07:34:09;100833.84;;;11.94;100.00
72959;BME280;60008;50.826;6.896;2022-09-25T07:36:56;100831.84;;;12.04;100.00
72959;BME280;60008;50.826;6.896;2022-09-25T07:39:41;100837.00;;;12.14;100.00
72959;BME280;60008;50.826;6.896;2022-09-25T07:42:26;100835.78;;;12.32;100.00
72959;BME280;60008;50.826;6.896;2022-09-25T07:45:11;100836.44;;;12.34;100.00
72959;BME280;60008;50.826;6.896;2022-09-25T07:47:57;100834.59;;;12.43;100.00
72959;BME280;60008;50.826;6.896;2022-09-25T07:50:42;100833.69;;;12.67;99.74
72959;BME280;60008;50.826;6.896;2022-09-25T07:53:27;100838.66;;;12.70;99.90
72959;BME280;60008;50.826;6.896;2022-09-25T07:56:13;100837.50;;;12.72;100.00
72959;BME280;60008;50.826;6.896;2022-09-25T07:58:58;100845.63;;;12.79;97.81
72959;BME280;60008;50.826;6.896;2022-09-25T08:01:43;100839.16;;;12.73;97.87
72959;BME280;60008;50.826;6.896;2022-09-25T08:04:34;100844.34;;;13.05;97.62
72959;BME280;60008;50.826;6.896;2022-09-25T08:07:19;100837.53;;;13.11;96.19
72959;BME280;60008;50.826;6.896;2022-09-25T08:10:05;100834.81;;;13.19;95.31
72959;BME280;60008;50.826;6.896;2022-09-25T08:12:50;100835.03;;;13.40;94.80
72959;BME280;60008;50.826;6.896;2022-09-25T08:15:35;100827.16;;;13.47;92.50
72959;BME280;60008;50.826;6.896;2022-09-25T08:18:20;100839.94;;;13.74;93.02
72959;BME280;60008;50.826;6.896;2022-09-25T08:21:06;100842.19;;;13.62;93.86
72959;BME280;60008;50.826;6.896;2022-09-25T08:23:52;100839.25;;;13.57;92.24
72959;BME280;60008;50.826;6.896;2022-09-25T08:26:39;100845.97;;;13.68;91.11
72959;BME280;60008;50.826;6.896;2022-09-25T08:29:23;100847.53;;;14.00;92.02
72959;BME280;60008;50.826;6.896;2022-09-25T08:32:08;100853.19;;;13.82;88.76
72959;BME280;60008;50.826;6.896;2022-09-25T08:34:53;100856.16;;;14.24;90.20
72959;BME280;60008;50.826;6.896;2022-09-25T08:37:42;100855.44;;;13.93;86.23
72959;BME280;60008;50.826;6.896;2022-09-25T08:40:30;100859.53;;;13.81;86.31
72959;BME280;60008;50.826;6.896;2022-09-25T08:43:20;100863.66;;;14.06;90.24
72959;BME280;60008;50.826;6.896;2022-09-25T08:46:15;100856.59;;;14.13;87.44
72959;BME280;60008;50.826;6.896;2022-09-25T08:49:22;100854.75;;;13.99;86.95
72959;BME280;60008;50.826;6.896;2022-09-25T08:52:14;100852.91;;;14.14;87.02
72959;BME280;60008;50.826;6.896;2022-09-25T08:55:00;100845.56;;;14.54;84.44
72959;BME280;60008;50.826;6.896;2022-09-25T08:57:46;100850.78;;;14.76;80.73
72959;BME280;60008;50.826;6.896;2022-09-25T09:00:31;100854.75;;;13.99;85.79
72959;BME280;60008;50.826;6.896;2022-09-25T09:03:16;100853.50;;;13.64;84.86
72959;BME280;60008;50.826;6.896;2022-09-25T09:06:05;100850.66;;;13.66;89.23
72959;BME280;60008;50.826;6.896;2022-09-25T09:09:01;100853.19;;;13.59;86.98
72959;BME280;60008;50.826;6.896;2022-09-25T09:11:52;100850.28;;;13.92;87.97
72959;BME280;60008;50.826;6.896;2022-09-25T09:14:47;100853.72;;;14.00;83.51
72959;BME280;60008;50.826;6.896;2022-09-25T09:17:40;100846.28;;;14.92;79.39
72959;BME280;60008;50.826;6.896;2022-09-25T09:20:35;100843.44;;;18.10;68.73
72959;BME280;60008;50.826;6.896;2022-09-25T09:23:44;100844.34;;;20.26;59.45
72959;BME280;60008;50.826;6.896;2022-09-25T09:26:55;100847.72;;;20.64;57.09
72959;BME280;60008;50.826;6.896;2022-09-25T09:30:00;100843.75;;;16.53;71.46
72959;BME280;60008;50.826;6.896;2022-09-25T09:33:14;100851.44;;;15.86;73.19
72959;BME280;60008;50.826;6.896;2022-09-25T09:36:14;100849.84;;;14.99;81.13
72959;BME280;60008;50.826;6.896;2022-09-25T09:39:07;100848.31;;;14.75;83.34
72959;BME280;60008;50.826;6.896;2022-09-25T09:42:09;100844.69;;;17.20;69.82
72959;BME280;60008;50.826;6.896;2022-09-25T09:45:27;100848.97;;;15.63;73.71
72959;BME280;60008;50.826;6.896;2022-09-25T09:48:28;100845.69;;;18.39;65.54
72959;BME280;60008;50.826;6.896;2022-09-25T09:51:21;100847.94;;;17.57;64.33
72959;BME280;60008;50.826;6.896;2022-09-25T09:54:48;100837.84;;;17.05;62.66
72959;BME280;60008;50.826;6.896;2022-09-25T09:57:47;100838.53;;;15.47;69.46
72959;BME280;60008;50.826;6.896;2022-09-25T10:00:37;100832.69;;;18.16;63.95
72959;BME280;60008;50.826;6.896;2022-09-25T10:03:27;100825.38;;;16.50;63.38
72959;BME280;60008;50.826;6.896;2022-09-25T10:06:14;100826.56;;;15.64;69.71
72959;BME280;60008;50.826;6.896;2022-09-25T10:09:10;100823.91;;;14.93;69.44
72959;BME280;60008;50.826;6.896;2022-09-25T10:12:11;100827.53;;;15.57;68.42
72959;BME280;60008;50.826;6.896;2022-09-25T10:15:03;100824.69;;;16.62;63.71
72959;BME280;60008;50.826;6.896;2022-09-25T10:17:49;100817.91;;;17.20;65.15
72959;BME280;60008;50.826;6.896;2022-09-25T10:20:40;100815.91;;;17.36;62.83
72959;BME280;60008;50.826;6.896;2022-09-25T10:23:39;100823.56;;;16.85;68.41
72959;BME280;60008;50.826;6.896;2022-09-25T10:26:30;100827.91;;;15.75;68.14
72959;BME280;60008;50.826;6.896;2022-09-25T10:32:05;100824.38;;;16.51;64.49
72959;BME280;60008;50.826;6.896;2022-09-25T10:34:52;100821.25;;;17.42;61.58
72959;BME280;60008;50.826;6.896;2022-09-25T10:37:37;100819.25;;;17.64;60.80
72959;BME280;60008;50.826;6.896;2022-09-25T10:40:36;100821.97;;;16.56;63.90
72959;BME280;60008;50.826;6.896;2022-09-25T10:43:22;100826.22;;;16.23;62.17
72959;BME280;60008;50.826;6.896;2022-09-25T10:46:14;100828.44;;;16.13;65.84
72959;BME280;60008;50.826;6.896;2022-09-25T10:49:17;100815.31;;;15.69;63.18
72959;BME280;60008;50.826;6.896;2022-09-25T10:52:21;100823.16;;;15.34;63.34
72959;BME280;60008;50.826;6.896;2022-09-25T10:55:36;100809.69;;;15.21;68.11
72959;BME280;60008;50.826;6.896;2022-09-25T10:58:29;100816.84;;;15.21;63.53
72959;BME280;60008;50.826;6.896;2022-09-25T11:01:16;100808.19;;;16.03;62.99
72959;BME280;60008;50.826;6.896;2022-09-25T11:04:15;100814.13;;;16.27;60.21
72959;BME280;60008;50.826;6.896;2022-09-25T11:07:06;100822.44;;;15.83;65.89
72959;BME280;60008;50.826;6.896;2022-09-25T11:09:59;100811.91;;;16.02;62.40
72959;BME280;60008;50.826;6.896;2022-09-25T11:12:44;100817.56;;;15.65;68.24
72959;BME280;60008;50.826;6.896;2022-09-25T11:15:30;100824.78;;;15.50;69.87
72959;BME280;60008;50.826;6.896;2022-09-25T11:18:33;100812.09;;;15.73;63.30
72959;BME280;60008;50.826;6.896;2022-09-25T11:21:31;100815.25;;;15.83;65.82
72959;BME280;60008;50.826;6.896;2022-09-25T11:24:35;100819.66;;;15.70;64.02
72959;BME280;60008;50.826;6.896;2022-09-25T11:27:44;100824.63;;;16.28;62.44
72959;BME280;60008;50.826;6.896;2022-09-25T11:30:39;100822.34;;;16.53;65.87
72959;BME280;60008;50.826;6.896;2022-09-25T11:33:41;100813.00;;;17.37;58.28
72959;BME280;60008;50.826;6.896;2022-09-25T11:36:34;100810.13;;;19.83;51.71
72959;BME280;60008;50.826;6.896;2022-09-25T11:39:29;100803.25;;;19.63;51.33
72959;BME280;60008;50.826;6.896;2022-09-25T11:45:41;100810.19;;;17.65;54.45
72959;BME280;60008;50.826;6.896;2022-09-25T11:55:42;100801.41;;;17.10;59.03
72959;BME280;60008;50.826;6.896;2022-09-25T11:58:28;100796.38;;;16.88;56.66
72959;BME280;60008;50.826;6.896;2022-09-25T12:01:43;100789.91;;;16.69;58.47
72959;BME280;60008;50.826;6.896;2022-09-25T12:11:00;100781.88;;;16.69;55.38
72959;BME280;60008;50.826;6.896;2022-09-25T12:14:18;100785.78;;;16.66;54.55
72959;BME280;60008;50.826;6.896;2022-09-25T12:26:18;100788.34;;;15.64;65.98
72959;BME280;60008;50.826;6.896;2022-09-25T12:32:28;100785.63;;;15.57;61.00
72959;BME280;60008;50.826;6.896;2022-09-25T12:41:37;100767.13;;;16.11;60.25
72959;BME280;60008;50.826;6.896;2022-09-25T12:44:43;100767.13;;;16.11;57.57
72959;BME280;60008;50.826;6.896;2022-09-25T12:47:39;100770.59;;;16.12;57.21
72959;BME280;60008;50.826;6.896;2022-09-25T12:50:38;100761.94;;;16.03;55.14
72959;BME280;60008;50.826;6.896;2022-09-25T12:53:30;100751.75;;;16.20;54.26
72959;BME280;60008;50.826;6.896;2022-09-25T12:56:35;100753.69;;;16.32;57.57
72959;BME280;60008;50.826;6.896;2022-09-25T12:59:32;100757.53;;;16.23;54.68
72959;BME280;60008;50.826;6.896;2022-09-25T13:02:33;100754.75;;;16.38;54.04
72959;BME280;60008;50.826;6.896;2022-09-25T13:05:33;100738.44;;;16.67;58.71
72959;BME280;60008;50.826;6.896;2022-09-25T13:08:24;100738.28;;;16.88;58.42
72959;BME280;60008;50.826;6.896;2022-09-25T13:11:21;100736.50;;;17.08;56.55
72959;BME280;60008;50.826;6.896;2022-09-25T13:14:20;100732.31;;;16.86;59.13
72959;BME280;60008;50.826;6.896;2022-09-25T13:17:11;100727.06;;;16.58;57.55
72959;BME280;60008;50.826;6.896;2022-09-25T13:23:32;100723.25;;;16.40;55.63
72959;BME280;60008;50.826;6.896;2022-09-25T13:26:22;100713.16;;;16.76;54.50
72959;BME280;60008;50.826;6.896;2022-09-25T13:29:24;100710.09;;;16.92;56.36
72959;BME280;60008;50.826;6.896;2022-09-25T13:32:18;100709.09;;;16.46;55.08
72959;BME280;60008;50.826;6.896;2022-09-25T13:35:14;100718.19;;;15.83;55.17
72959;BME280;60008;50.826;6.896;2022-09-25T13:38:15;100716.59;;;15.61;59.88
72959;BME280;60008;50.826;6.896;2022-09-25T13:41:24;100717.22;;;15.41;56.62
72959;BME280;60008;50.826;6.896;2022-09-25T13:56:12;100703.53;;;16.06;51.79
72959;BME280;60008;50.826;6.896;2022-09-25T14:02:36;100705.13;;;16.35;55.47
72959;BME280;60008;50.826;6.896;2022-09-25T14:05:24;100693.88;;;16.46;56.58
72959;BME280;60008;50.826;6.896;2022-09-25T14:08:13;100696.88;;;16.71;54.42
72959;BME280;60008;50.826;6.896;2022-09-25T14:11:02;100687.22;;;16.77;54.76
72959;BME280;60008;50.826;6.896;2022-09-25T14:13:50;100694.84;;;16.86;54.41
72959;BME280;60008;50.826;6.896;2022-09-25T14:16:48;100688.19;;;16.69;55.24
72959;BME280;60008;50.826;6.896;2022-09-25T14:19:38;100691.66;;;16.56;55.03
72959;BME280;60008;50.826;6.896;2022-09-25T14:22:34;100688.63;;;16.73;52.61
72959;BME280;60008;50.826;6.896;2022-09-25T14:25:26;100692.09;;;16.60;53.01
72959;BME280;60008;50.826;6.896;2022-09-25T14:28:21;100681.03;;;16.76;51.34
72959;BME280;60008;50.826;6.896;2022-09-25T14:37:42;100676.16;;;17.19;50.86
72959;BME280;60008;50.826;6.896;2022-09-25T14:40:35;100673.66;;;17.04;50.02
72959;BME280;60008;50.826;6.896;2022-09-25T14:43:41;100680.03;;;17.10;50.91
72959;BME280;60008;50.826;6.896;2022-09-25T14:46:29;100676.94;;;16.93;51.81
72959;BME280;60008;50.826;6.896;2022-09-25T14:52:10;100683.38;;;17.51;49.78
72959;BME280;60008;50.826;6.896;2022-09-25T14:54:58;100675.13;;;17.40;50.49
72959;BME280;60008;50.826;6.896;2022-09-25T14:57:45;100671.00;;;17.31;48.97
72959;BME280;60008;50.826;6.896;2022-09-25T15:00:32;100661.50;;;17.48;49.95
72959;BME280;60008;50.826;6.896;2022-09-25T15:03:23;100666.69;;;17.30;50.85
72959;BME280;60008;50.826;6.896;2022-09-25T15:06:10;100653.47;;;17.08;53.56
72959;BME280;60008;50.826;6.896;2022-09-25T15:09:00;100655.09;;;16.96;54.73
72959;BME280;60008;50.826;6.896;2022-09-25T15:11:52;100654.69;;;16.86;54.84
72959;BME280;60008;50.826;6.896;2022-09-25T15:14:38;100647.03;;;16.70;54.17
72959;BME280;60008;50.826;6.896;2022-09-25T15:17:23;100646.22;;;16.63;57.16
72959;BME280;60008;50.826;6.896;2022-09-25T15:20:12;100656.28;;;16.74;57.53
72959;BME280;60008;50.826;6.896;2022-09-25T15:23:01;100651.59;;;16.83;54.45
72959;BME280;60008;50.826;6.896;2022-09-25T15:25:50;100650.94;;;16.74;54.12
72959;BME280;60008;50.826;6.896;2022-09-25T15:28:37;100646.84;;;16.78;54.37
72959;BME280;60008;50.826;6.896;2022-09-25T15:31:25;100647.06;;;16.77;55.67
72959;BME280;60008;50.826;6.896;2022-09-25T15:34:12;100651.59;;;16.76;54.61
72959;BME280;60008;50.826;6.896;2022-09-25T15:37:16;100643.94;;;16.60;55.33
72959;BME280;60008;50.826;6.896;2022-09-25T15:43:00;100645.03;;;16.31;57.36
72959;BME280;60008;50.826;6.896;2022-09-25T15:48:56;100642.63;;;16.02;57.18
72959;BME280;60008;50.826;6.896;2022-09-25T15:52:03;100639.75;;;15.97;54.06
72959;BME280;60008;50.826;6.896;2022-09-25T15:54:48;100640.97;;;15.94;55.54
72959;BME280;60008;50.826;6.896;2022-09-25T15:57:33;100637.41;;;15.87;56.64
72959;BME280;60008;50.826;6.896;2022-09-25T16:00:24;100633.50;;;15.83;56.74
72959;BME280;60008;50.826;6.896;2022-09-25T16:03:29;100636.94;;;15.77;57.26
72959;BME280;60008;50.826;6.896;2022-09-25T16:06:38;100632.81;;;15.75;56.80
72959;BME280;60008;50.826;6.896;2022-09-25T16:09:30;100632.78;;;15.68;57.22
72959;BME280;60008;50.826;6.896;2022-09-25T16:12:19;100631.09;;;15.61;58.90
72959;BME280;60008;50.826;6.896;2022-09-25T16:21:29;100634.78;;;15.38;61.09
72959;BME280;60008;50.826;6.896;2022-09-25T16:24:21;100636.84;;;15.36;59.55
72959;BME280;60008;50.826;6.896;2022-09-25T16:27:20;100636.22;;;15.34;59.14